createdAt,value
2022-09-06T00:04:35.769Z,101764.75
2022-09-06T00:09:37.474Z,101763.19
2022-09-06T00:14:41.250Z,101757.84
2022-09-06T00:19:42.900Z,101751.72
2022-09-06T00:24:44.791Z,101750.09
2022-09-06T00:29:48.146Z,101744.94
2022-09-06T00:34:49.841Z,101749.53
2022-09-06T00:39:52.014Z,101746.03
2022-09-06T00:44:55.301Z,101729.81
2022-09-06T00:50:00.230Z,101734.38
2022-09-06T00:55:02.774Z,101748.72
2022-09-06T01:00:08.758Z,101739.88
2022-09-06T01:05:12.141Z,101737.31
2022-09-06T01:10:30.632Z,101747.13
2022-09-06T01:15:54.821Z,101747.22
2022-09-06T01:21:12.571Z,101743.81
2022-09-06T01:26:42.352Z,101749.22
2022-09-06T01:31:51.015Z,101742.94
2022-09-06T01:37:09.532Z,101743.06
2022-09-06T01:42:15.934Z,101735.28
2022-09-06T01:47:29.757Z,101738.53
2022-09-06T01:52:35.885Z,101740.31
2022-09-06T01:57:50.542Z,101743.19
2022-09-06T02:03:06.513Z,101745.75
2022-09-06T02:08:12.887Z,101741.47
2022-09-06T02:13:17.109Z,101736.97
2022-09-06T02:18:24.949Z,101738.06
2022-09-06T02:23:38.452Z,101727.44
2022-09-06T02:28:40.801Z,101727.53
2022-09-06T02:33:46.544Z,101724.25
2022-09-06T02:38:48.812Z,101741.19
2022-09-06T02:43:50.841Z,101726.09
2022-09-06T02:48:54.259Z,101721.75
2022-09-06T02:53:56.353Z,101724.56
2022-09-06T02:58:58.359Z,101731.69
2022-09-06T03:04:02.229Z,101722.75
2022-09-06T03:09:04.323Z,101714.81
2022-09-06T03:14:06.005Z,101718.56
2022-09-06T03:19:09.320Z,101718.53
2022-09-06T03:24:11.336Z,101717.63
2022-09-06T03:29:13.383Z,101706.91
2022-09-06T03:34:16.617Z,101723.03
2022-09-06T03:39:18.669Z,101712.28
2022-09-06T03:44:20.865Z,101714.19
2022-09-06T03:49:24.178Z,101709.69
2022-09-06T03:54:26.008Z,101715.09
2022-09-06T03:59:27.745Z,101709.63
2022-09-06T04:04:30.723Z,101711.50
2022-09-06T04:09:32.558Z,101708.06
2022-09-06T04:14:34.244Z,101700.84
2022-09-06T04:19:37.927Z,101708.09
2022-09-06T04:24:40.096Z,101701.94
2022-09-06T04:29:42.069Z,101686.81
2022-09-06T04:34:45.115Z,101680.53
2022-09-06T04:39:46.977Z,101669.00
2022-09-06T04:44:49.219Z,101676.03
2022-09-06T04:49:52.568Z,101672.38
2022-09-06T04:54:54.295Z,101682.97
2022-09-06T04:59:55.974Z,101676.69
2022-09-06T05:04:59.390Z,101674.00
2022-09-06T05:10:01.400Z,101671.34
2022-09-06T05:15:03.726Z,101676.59
2022-09-06T05:20:08.604Z,101677.28
2022-09-06T05:25:11.085Z,101673.47
2022-09-06T05:30:14.133Z,101675.47
2022-09-06T05:35:17.726Z,101683.53
2022-09-06T05:40:19.685Z,101692.22
2022-09-06T05:45:25.198Z,101684.22
2022-09-06T05:50:28.711Z,101682.03
2022-09-06T05:55:30.411Z,101669.09
2022-09-06T06:00:32.418Z,101662.06
2022-09-06T06:05:35.482Z,101660.78
2022-09-06T06:10:38.736Z,101674.34
2022-09-06T06:15:40.823Z,101674.03
2022-09-06T06:20:44.408Z,101676.66
2022-09-06T06:25:46.472Z,101674.72
2022-09-06T06:30:48.168Z,101670.63
2022-09-06T06:36:03.099Z,101658.28
2022-09-06T06:41:07.321Z,101666.00
2022-09-06T06:46:11.191Z,101661.00
2022-09-06T06:51:16.606Z,101662.50
2022-09-06T06:56:20.455Z,101658.81
2022-09-06T07:01:23.893Z,101659.28
2022-09-06T07:11:50.672Z,101658.00
2022-09-06T07:16:52.370Z,101658.91
2022-09-06T07:21:56.017Z,101658.59
2022-09-06T07:32:20.056Z,101644.13
2022-09-06T07:37:23.358Z,101639.88
2022-09-06T07:42:25.364Z,101655.72
2022-09-06T07:58:08.727Z,101662.59
2022-09-06T08:03:10.624Z,101659.47
2022-09-06T08:13:37.224Z,101666.91
2022-09-06T08:18:39.351Z,101665.75
2022-09-06T08:23:46.553Z,101660.94
2022-09-06T08:28:48.653Z,101660.41
2022-09-06T08:33:52.466Z,101663.91
2022-09-06T08:38:56.188Z,101661.78
2022-09-06T08:49:25.945Z,101646.91
2022-09-06T08:54:37.283Z,101647.47
2022-09-06T08:59:41.346Z,101640.50
2022-09-06T09:04:46.898Z,101640.28
2022-09-06T09:09:52.605Z,101637.44
2022-09-06T09:15:02.179Z,101636.47
2022-09-06T09:20:04.595Z,101627.94
2022-09-06T09:25:16.200Z,101629.22
2022-09-06T09:35:41.927Z,101599.88
2022-09-06T09:40:52.718Z,101595.88
2022-09-06T09:46:16.610Z,101596.16
2022-09-06T09:51:26.954Z,101598.69
2022-09-06T09:56:37.097Z,101588.56
2022-09-06T10:01:39.012Z,101586.91
2022-09-06T10:12:05.427Z,101561.28
2022-09-06T10:17:07.470Z,101562.94
2022-09-06T10:22:28.092Z,101561.66
2022-09-06T10:27:31.975Z,101556.81
2022-09-06T10:32:41.323Z,101553.75
2022-09-06T10:38:03.039Z,101550.81
2022-09-06T10:43:15.076Z,101542.47
2022-09-06T10:48:21.373Z,101555.03
2022-09-06T10:53:34.815Z,101550.13
2022-09-06T11:04:12.721Z,101529.09
2022-09-06T11:09:22.867Z,101527.16
2022-09-06T11:14:28.543Z,101524.69
2022-09-06T11:19:38.412Z,101521.59
2022-09-06T11:24:58.671Z,101519.00
2022-09-06T11:30:04.404Z,101518.06
2022-09-06T11:35:08.346Z,101523.22
2022-09-06T11:40:32.644Z,101517.31
2022-09-06T11:45:44.771Z,101521.31
2022-09-06T11:51:01.430Z,101522.63
2022-09-06T11:56:25.408Z,101517.72
2022-09-06T12:01:38.305Z,101510.84
2022-09-06T12:06:42.349Z,101500.69
2022-09-06T12:11:44.655Z,101498.72
2022-09-06T12:17:26.541Z,101501.66
2022-09-06T12:23:02.928Z,101497.34
2022-09-06T12:28:09.605Z,101484.38
2022-09-06T12:33:17.270Z,101497.63
2022-09-06T12:38:25.126Z,101487.56
2022-09-06T12:43:27.285Z,101480.75
2022-09-06T12:48:31.954Z,101472.97
2022-09-06T12:53:36.375Z,101465.56
2022-09-06T12:58:38.548Z,101461.31
2022-09-06T13:03:43.876Z,101456.31
2022-09-06T13:08:49.656Z,101442.22
2022-09-06T13:13:53.701Z,101430.06
2022-09-06T13:19:10.399Z,101434.31
2022-09-06T13:24:22.007Z,101431.31
2022-09-06T13:29:26.187Z,101439.38
2022-09-06T13:34:32.268Z,101425.22
2022-09-06T13:39:38.016Z,101415.50
2022-09-06T13:44:41.163Z,101422.53
2022-09-06T13:49:43.297Z,101415.66
2022-09-06T13:54:46.360Z,101417.06
2022-09-06T13:59:48.098Z,101421.41
2022-09-06T14:04:50.086Z,101417.00
2022-09-06T14:09:53.738Z,101419.25
2022-09-06T14:14:55.495Z,101418.78
2022-09-06T14:19:57.770Z,101413.38
2022-09-06T14:25:01.073Z,101409.53
2022-09-06T14:30:03.820Z,101424.38
2022-09-06T14:35:06.505Z,101416.28
2022-09-06T14:40:10.790Z,101406.44
2022-09-06T14:45:12.568Z,101404.38
2022-09-06T14:50:14.321Z,101401.91
2022-09-06T14:55:17.753Z,101402.38
2022-09-06T15:00:19.820Z,101398.00
2022-09-06T15:05:21.863Z,101397.75
2022-09-06T15:10:25.198Z,101392.03
2022-09-06T15:15:26.958Z,101376.97
2022-09-06T15:20:30.015Z,101358.94
2022-09-06T15:25:33.429Z,101355.91
2022-09-06T15:30:38.063Z,101351.47
2022-09-06T15:35:40.120Z,101351.41
2022-09-06T15:40:43.623Z,101349.44
2022-09-06T15:45:47.800Z,101361.47
2022-09-06T15:50:51.539Z,101361.97
2022-09-06T15:56:00.281Z,101347.81
2022-09-06T16:01:05.931Z,101349.91
2022-09-06T16:06:26.143Z,101338.38
2022-09-06T16:11:31.395Z,101353.03
2022-09-06T16:16:33.798Z,101334.19
2022-09-06T16:21:38.006Z,101330.41
2022-09-06T16:26:42.805Z,101339.19
2022-09-06T16:31:45.602Z,101344.84
2022-09-06T16:36:47.905Z,101349.22
2022-09-06T16:41:51.042Z,101347.97
2022-09-06T16:46:53.281Z,101339.63
2022-09-06T16:51:55.479Z,101342.16
2022-09-06T16:56:58.847Z,101327.81
2022-09-06T17:02:01.210Z,101327.38
2022-09-06T17:07:03.087Z,101318.25
2022-09-06T17:12:07.015Z,101314.09
2022-09-06T17:17:08.941Z,101316.22
2022-09-06T17:22:12.655Z,101319.31
2022-09-06T17:27:15.976Z,101315.34
2022-09-06T17:32:17.777Z,101315.75
2022-09-06T17:37:19.707Z,101326.03
2022-09-06T17:42:23.143Z,101334.56
2022-09-06T17:47:25.209Z,101340.56
2022-09-06T17:52:27.338Z,101343.56
2022-09-06T17:57:31.174Z,101343.56
2022-09-06T18:02:32.872Z,101347.50
2022-09-06T18:07:34.600Z,101350.44
2022-09-06T18:12:38.326Z,101346.56
2022-09-06T18:17:40.238Z,101347.13
2022-09-06T18:22:42.216Z,101345.16
2022-09-06T18:27:45.559Z,101345.91
2022-09-06T18:32:47.771Z,101347.63
2022-09-06T18:37:49.771Z,101346.44
2022-09-06T18:42:52.967Z,101346.84
2022-09-06T18:47:55.217Z,101350.56
2022-09-06T18:52:56.926Z,101351.28
2022-09-06T18:58:00.305Z,101339.28
2022-09-06T19:03:02.088Z,101348.50
2022-09-06T19:08:04.687Z,101362.09
2022-09-06T19:13:08.405Z,101351.81
2022-09-06T19:18:10.495Z,101348.38
2022-09-06T19:23:12.468Z,101348.84
2022-09-06T19:28:15.776Z,101353.47
2022-09-06T19:33:18.772Z,101344.00
2022-09-06T19:38:20.767Z,101358.03
2022-09-06T19:43:24.023Z,101352.03
2022-09-06T19:48:25.906Z,101354.69
2022-09-06T19:53:28.284Z,101349.47
2022-09-06T19:58:32.762Z,101344.13
2022-09-06T20:03:36.183Z,101346.13
2022-09-06T20:08:39.929Z,101347.31
2022-09-06T20:13:44.606Z,101342.03
2022-09-06T20:18:47.020Z,101344.94
2022-09-06T20:23:49.826Z,101342.16
2022-09-06T20:28:55.692Z,101333.38
2022-09-06T20:34:01.656Z,101325.66
2022-09-06T20:39:04.404Z,101322.22
2022-09-06T20:44:07.838Z,101321.50
2022-09-06T20:49:09.529Z,101324.47
2022-09-06T20:54:11.525Z,101303.34
2022-09-06T20:59:15.067Z,101296.50
2022-09-06T21:04:18.043Z,101299.50
2022-09-06T21:09:20.133Z,101296.44
2022-09-06T21:14:23.624Z,101283.25
2022-09-06T21:19:25.762Z,101282.69
2022-09-06T21:24:27.811Z,101280.28
2022-09-06T21:29:30.885Z,101274.03
2022-09-06T21:34:32.922Z,101276.03
2022-09-06T21:39:35.292Z,101272.72
2022-09-06T21:44:38.404Z,101275.41
2022-09-06T21:49:40.418Z,101261.31
2022-09-06T21:54:42.474Z,101258.91
2022-09-06T21:59:45.902Z,101246.88
2022-09-06T22:04:47.947Z,101249.88
2022-09-06T22:09:50.088Z,101245.56
2022-09-06T22:14:53.507Z,101237.09
2022-09-06T22:19:55.535Z,101229.03
2022-09-06T22:24:57.538Z,101233.06
2022-09-06T22:30:01.122Z,101226.16
2022-09-06T22:35:03.807Z,101230.94
2022-09-06T22:40:07.260Z,101232.72
2022-09-06T22:45:11.269Z,101222.88
2022-09-06T22:50:13.426Z,101221.88
2022-09-06T22:55:15.343Z,101212.22
2022-09-06T23:00:18.723Z,101219.50
2022-09-06T23:05:21.256Z,101213.38
2022-09-06T23:10:23.102Z,101213.38
2022-09-06T23:15:26.584Z,101216.09
2022-09-06T23:20:28.255Z,101220.13
2022-09-06T23:25:30.561Z,101207.84
2022-09-06T23:30:36.843Z,101211.00
2022-09-06T23:35:38.601Z,101215.03
2022-09-06T23:40:40.804Z,101223.38
2022-09-06T23:45:44.371Z,101227.56
2022-09-06T23:50:46.918Z,101228.34
2022-09-06T23:55:48.976Z,101209.31
